sensor_id;sensor_type;location;lat;lon;timestamp;pressure;altitude;pressure_sealevel;temperature;humidity
45888;BME280;31595;51.418;7.572;2022-09-01T00:01:10;100762.81;;;17.73;54.03
45888;BME280;31595;51.418;7.572;2022-09-01T00:03:40;100762.34;;;17.71;54.29
45888;BME280;31595;51.418;7.572;2022-09-01T00:06:08;100769.50;;;17.68;54.32
45888;BME280;31595;51.418;7.572;2022-09-01T00:08:36;100770.41;;;17.72;54.40
45888;BME280;31595;51.418;7.572;2022-09-01T00:11:05;100762.69;;;17.69;54.55
45888;BME280;31595;51.418;7.572;2022-09-01T00:13:32;100762.44;;;17.74;54.54
45888;BME280;31595;51.418;7.572;2022-09-01T00:16:00;100757.72;;;17.78;54.53
45888;BME280;31595;51.418;7.572;2022-09-01T00:18:29;100759.59;;;17.74;54.41
45888;BME280;31595;51.418;7.572;2022-09-01T00:20:57;100764.34;;;17.70;54.37
45888;BME280;31595;51.418;7.572;2022-09-01T00:23:26;100755.31;;;17.64;54.54
45888;BME280;31595;51.418;7.572;2022-09-01T00:25:53;100754.84;;;17.62;54.91
45888;BME280;31595;51.418;7.572;2022-09-01T00:28:22;100758.34;;;17.59;54.99
45888;BME280;31595;51.418;7.572;2022-09-01T00:30:49;100757.34;;;17.52;55.05
45888;BME280;31595;51.418;7.572;2022-09-01T00:33:16;100755.13;;;17.45;55.31
45888;BME280;31595;51.418;7.572;2022-09-01T00:35:44;100762.97;;;17.39;55.33
45888;BME280;31595;51.418;7.572;2022-09-01T00:38:11;100765.56;;;17.32;55.38
45888;BME280;31595;51.418;7.572;2022-09-01T00:40:39;100769.69;;;17.22;55.65
45888;BME280;31595;51.418;7.572;2022-09-01T00:43:14;100765.47;;;17.16;55.96
45888;BME280;31595;51.418;7.572;2022-09-01T00:45:44;100764.88;;;17.11;56.10
45888;BME280;31595;51.418;7.572;2022-09-01T00:48:11;100757.34;;;17.02;56.24
45888;BME280;31595;51.418;7.572;2022-09-01T00:50:40;100767.91;;;16.93;56.56
45888;BME280;31595;51.418;7.572;2022-09-01T00:53:08;100756.19;;;16.91;56.33
45888;BME280;31595;51.418;7.572;2022-09-01T00:55:36;100760.06;;;16.87;56.43
45888;BME280;31595;51.418;7.572;2022-09-01T00:58:05;100759.47;;;16.81;56.57
45888;BME280;31595;51.418;7.572;2022-09-01T01:00:38;100747.56;;;16.75;56.65
45888;BME280;31595;51.418;7.572;2022-09-01T01:03:09;100760.59;;;16.68;56.71
45888;BME280;31595;51.418;7.572;2022-09-01T01:05:42;100751.53;;;16.62;56.68
45888;BME280;31595;51.418;7.572;2022-09-01T01:08:11;100756.09;;;16.54;57.04
45888;BME280;31595;51.418;7.572;2022-09-01T01:10:40;100758.19;;;16.45;57.21
45888;BME280;31595;51.418;7.572;2022-09-01T01:13:09;100752.31;;;16.38;57.06
45888;BME280;31595;51.418;7.572;2022-09-01T01:15:37;100749.47;;;16.26;57.54
45888;BME280;31595;51.418;7.572;2022-09-01T01:18:10;100753.44;;;16.24;57.70
45888;BME280;31595;51.418;7.572;2022-09-01T01:20:38;100755.63;;;16.19;57.58
45888;BME280;31595;51.418;7.572;2022-09-01T01:23:29;100754.22;;;16.13;57.99
45888;BME280;31595;51.418;7.572;2022-09-01T01:26:05;100760.38;;;16.06;58.24
45888;BME280;31595;51.418;7.572;2022-09-01T01:28:36;100755.31;;;15.99;58.50
45888;BME280;31595;51.418;7.572;2022-09-01T01:31:08;100756.34;;;15.95;58.69
45888;BME280;31595;51.418;7.572;2022-09-01T01:33:39;100766.63;;;15.91;58.84
45888;BME280;31595;51.418;7.572;2022-09-01T01:36:12;100761.25;;;15.86;59.01
45888;BME280;31595;51.418;7.572;2022-09-01T01:38:44;100768.56;;;15.78;59.10
45888;BME280;31595;51.418;7.572;2022-09-01T01:41:14;100764.13;;;15.68;59.78
45888;BME280;31595;51.418;7.572;2022-09-01T01:43:42;100765.50;;;15.62;59.62
45888;BME280;31595;51.418;7.572;2022-09-01T01:46:10;100765.88;;;15.60;59.91
45888;BME280;31595;51.418;7.572;2022-09-01T01:48:41;100762.91;;;15.57;59.82
45888;BME280;31595;51.418;7.572;2022-09-01T01:51:09;100767.78;;;15.48;60.17
45888;BME280;31595;51.418;7.572;2022-09-01T01:53:39;100769.63;;;15.43;60.24
45888;BME280;31595;51.418;7.572;2022-09-01T01:56:06;100776.22;;;15.39;60.18
45888;BME280;31595;51.418;7.572;2022-09-01T01:58:37;100772.13;;;15.36;60.08
45888;BME280;31595;51.418;7.572;2022-09-01T02:01:05;100780.25;;;15.29;60.45
45888;BME280;31595;51.418;7.572;2022-09-01T02:03:37;100772.72;;;15.21;60.64
45888;BME280;31595;51.418;7.572;2022-09-01T02:06:07;100771.91;;;15.20;60.72
45888;BME280;31595;51.418;7.572;2022-09-01T02:08:35;100778.50;;;15.16;60.66
45888;BME280;31595;51.418;7.572;2022-09-01T02:11:04;100778.72;;;15.11;60.89
45888;BME280;31595;51.418;7.572;2022-09-01T02:13:32;100772.81;;;15.04;60.95
45888;BME280;31595;51.418;7.572;2022-09-01T02:16:04;100769.53;;;15.01;61.00
45888;BME280;31595;51.418;7.572;2022-09-01T02:18:39;100775.78;;;14.98;61.02
45888;BME280;31595;51.418;7.572;2022-09-01T02:21:09;100775.63;;;14.95;61.03
45888;BME280;31595;51.418;7.572;2022-09-01T02:23:39;100775.16;;;14.93;61.37
45888;BME280;31595;51.418;7.572;2022-09-01T02:26:08;100772.34;;;14.93;61.01
45888;BME280;31595;51.418;7.572;2022-09-01T02:28:37;100771.53;;;14.92;61.16
45888;BME280;31595;51.418;7.572;2022-09-01T02:31:09;100775.84;;;14.90;61.05
45888;BME280;31595;51.418;7.572;2022-09-01T02:33:37;100777.34;;;14.87;61.40
45888;BME280;31595;51.418;7.572;2022-09-01T02:36:08;100778.19;;;14.79;61.95
45888;BME280;31595;51.418;7.572;2022-09-01T02:38:37;100773.72;;;14.78;61.88
45888;BME280;31595;51.418;7.572;2022-09-01T02:41:09;100766.97;;;14.79;62.10
45888;BME280;31595;51.418;7.572;2022-09-01T02:43:37;100770.59;;;14.79;61.88
45888;BME280;31595;51.418;7.572;2022-09-01T02:46:05;100767.78;;;14.79;61.95
45888;BME280;31595;51.418;7.572;2022-09-01T02:48:36;100770.25;;;14.81;61.67
45888;BME280;31595;51.418;7.572;2022-09-01T02:51:05;100770.25;;;14.81;61.57
45888;BME280;31595;51.418;7.572;2022-09-01T02:53:33;100777.50;;;14.82;62.22
45888;BME280;31595;51.418;7.572;2022-09-01T02:56:01;100772.75;;;14.82;61.75
45888;BME280;31595;51.418;7.572;2022-09-01T02:58:30;100774.22;;;14.80;62.13
45888;BME280;31595;51.418;7.572;2022-09-01T03:01:11;100765.31;;;14.78;62.22
45888;BME280;31595;51.418;7.572;2022-09-01T03:03:40;100766.28;;;14.82;61.79
45888;BME280;31595;51.418;7.572;2022-09-01T03:06:08;100766.16;;;14.78;61.91
45888;BME280;31595;51.418;7.572;2022-09-01T03:08:37;100763.00;;;14.80;61.76
45888;BME280;31595;51.418;7.572;2022-09-01T03:11:05;100761.84;;;14.81;61.79
45888;BME280;31595;51.418;7.572;2022-09-01T03:13:37;100770.25;;;14.81;62.20
45888;BME280;31595;51.418;7.572;2022-09-01T03:16:05;100767.63;;;14.76;62.05
45888;BME280;31595;51.418;7.572;2022-09-01T03:18:33;100772.09;;;14.77;62.17
45888;BME280;31595;51.418;7.572;2022-09-01T03:21:03;100767.13;;;14.74;61.88
45888;BME280;31595;51.418;7.572;2022-09-01T03:23:31;100767.34;;;14.69;61.83
45888;BME280;31595;51.418;7.572;2022-09-01T03:25:59;100783.19;;;14.65;61.95
45888;BME280;31595;51.418;7.572;2022-09-01T03:28:27;100775.09;;;14.63;62.11
45888;BME280;31595;51.418;7.572;2022-09-01T03:30:56;100773.13;;;14.64;62.26
45888;BME280;31595;51.418;7.572;2022-09-01T03:33:25;100776.75;;;14.64;62.06
45888;BME280;31595;51.418;7.572;2022-09-01T03:35:54;100773.78;;;14.60;62.18
45888;BME280;31595;51.418;7.572;2022-09-01T03:38:24;100774.59;;;14.52;62.47
45888;BME280;31595;51.418;7.572;2022-09-01T03:40:54;100781.03;;;14.53;62.23
45888;BME280;31595;51.418;7.572;2022-09-01T03:43:24;100777.06;;;14.54;62.06
45888;BME280;31595;51.418;7.572;2022-09-01T03:45:53;100778.72;;;14.46;62.49
45888;BME280;31595;51.418;7.572;2022-09-01T03:48:21;100770.84;;;14.39;62.12
45888;BME280;31595;51.418;7.572;2022-09-01T03:50:51;100771.16;;;14.38;62.37
45888;BME280;31595;51.418;7.572;2022-09-01T03:53:20;100769.53;;;14.37;62.85
45888;BME280;31595;51.418;7.572;2022-09-01T03:55:51;100760.31;;;14.36;62.38
45888;BME280;31595;51.418;7.572;2022-09-01T03:58:19;100768.38;;;14.29;62.39
45888;BME280;31595;51.418;7.572;2022-09-01T04:00:49;100768.72;;;14.28;62.44
45888;BME280;31595;51.418;7.572;2022-09-01T04:03:21;100773.50;;;14.27;62.56
45888;BME280;31595;51.418;7.572;2022-09-01T04:05:50;100771.03;;;14.26;62.55
45888;BME280;31595;51.418;7.572;2022-09-01T04:08:19;100770.06;;;14.21;62.50
45888;BME280;31595;51.418;7.572;2022-09-01T04:10:48;100765.78;;;14.15;63.20
45888;BME280;31595;51.418;7.572;2022-09-01T04:13:19;100768.09;;;14.13;62.83
45888;BME280;31595;51.418;7.572;2022-09-01T04:15:46;100772.72;;;14.09;63.38
45888;BME280;31595;51.418;7.572;2022-09-01T04:18:15;100777.63;;;14.12;63.30
45888;BME280;31595;51.418;7.572;2022-09-01T04:20:46;100774.66;;;14.09;63.21
45888;BME280;31595;51.418;7.572;2022-09-01T04:23:15;100781.94;;;14.01;63.32
45888;BME280;31595;51.418;7.572;2022-09-01T04:25:52;100777.66;;;13.95;63.05
45888;BME280;31595;51.418;7.572;2022-09-01T04:28:24;100767.09;;;13.92;62.72
45888;BME280;31595;51.418;7.572;2022-09-01T04:30:53;100768.28;;;13.91;63.04
45888;BME280;31595;51.418;7.572;2022-09-01T04:33:22;100764.97;;;13.89;62.94
45888;BME280;31595;51.418;7.572;2022-09-01T04:35:50;100770.56;;;13.89;63.18
45888;BME280;31595;51.418;7.572;2022-09-01T04:38:20;100767.59;;;13.85;63.12
45888;BME280;31595;51.418;7.572;2022-09-01T04:40:48;100764.63;;;13.73;63.72
45888;BME280;31595;51.418;7.572;2022-09-01T04:43:15;100768.78;;;13.75;63.69
45888;BME280;31595;51.418;7.572;2022-09-01T04:45:46;100769.09;;;13.74;63.32
45888;BME280;31595;51.418;7.572;2022-09-01T04:48:17;100776.69;;;13.73;63.57
45888;BME280;31595;51.418;7.572;2022-09-01T04:50:47;100769.41;;;13.72;63.71
45888;BME280;31595;51.418;7.572;2022-09-01T04:53:17;100768.28;;;13.73;63.75
45888;BME280;31595;51.418;7.572;2022-09-01T04:55:45;100770.59;;;13.71;63.51
45888;BME280;31595;51.418;7.572;2022-09-01T04:58:15;100767.78;;;13.71;63.65
45888;BME280;31595;51.418;7.572;2022-09-01T05:00:43;100770.72;;;13.75;63.44
45888;BME280;31595;51.418;7.572;2022-09-01T05:03:14;100775.00;;;13.72;63.61
45888;BME280;31595;51.418;7.572;2022-09-01T05:05:43;100778.31;;;13.74;63.52
45888;BME280;31595;51.418;7.572;2022-09-01T05:08:12;100769.59;;;13.76;63.83
45888;BME280;31595;51.418;7.572;2022-09-01T05:10:42;100769.91;;;13.74;63.86
45888;BME280;31595;51.418;7.572;2022-09-01T05:13:12;100771.22;;;13.77;63.89
45888;BME280;31595;51.418;7.572;2022-09-01T05:15:44;100774.69;;;13.83;63.42
45888;BME280;31595;51.418;7.572;2022-09-01T05:18:15;100771.88;;;13.83;63.61
45888;BME280;31595;51.418;7.572;2022-09-01T05:20:51;100776.81;;;13.86;63.39
45888;BME280;31595;51.418;7.572;2022-09-01T05:23:19;100775.34;;;13.88;63.65
45888;BME280;31595;51.418;7.572;2022-09-01T05:25:50;100768.09;;;13.87;63.86
45888;BME280;31595;51.418;7.572;2022-09-01T05:28:20;100767.78;;;13.89;63.34
45888;BME280;31595;51.418;7.572;2022-09-01T05:30:50;100774.69;;;13.91;63.74
45888;BME280;31595;51.418;7.572;2022-09-01T05:33:21;100768.41;;;13.86;64.11
45888;BME280;31595;51.418;7.572;2022-09-01T05:35:53;100778.31;;;13.74;64.80
45888;BME280;31595;51.418;7.572;2022-09-01T05:38:22;100776.19;;;13.71;64.81
45888;BME280;31595;51.418;7.572;2022-09-01T05:40:58;100781.44;;;13.81;64.86
45888;BME280;31595;51.418;7.572;2022-09-01T05:43:27;100779.16;;;13.92;64.65
45888;BME280;31595;51.418;7.572;2022-09-01T05:45:55;100779.63;;;13.86;64.52
45888;BME280;31595;51.418;7.572;2022-09-01T05:48:24;100772.38;;;13.67;65.46
45888;BME280;31595;51.418;7.572;2022-09-01T05:50:55;100783.56;;;14.02;64.47
45888;BME280;31595;51.418;7.572;2022-09-01T05:53:25;100778.31;;;14.09;64.54
45888;BME280;31595;51.418;7.572;2022-09-01T05:55:55;100779.56;;;14.38;63.58
45888;BME280;31595;51.418;7.572;2022-09-01T05:58:26;100781.03;;;14.53;62.93
45888;BME280;31595;51.418;7.572;2022-09-01T06:00:54;100786.16;;;14.68;62.40
45888;BME280;31595;51.418;7.572;2022-09-01T06:03:25;100784.94;;;14.78;62.25
45888;BME280;31595;51.418;7.572;2022-09-01T06:05:53;100783.28;;;14.86;62.19
45888;BME280;31595;51.418;7.572;2022-09-01T06:08:23;100773.19;;;14.93;62.14
45888;BME280;31595;51.418;7.572;2022-09-01T06:10:53;100780.06;;;15.05;61.57
45888;BME280;31595;51.418;7.572;2022-09-01T06:13:21;100781.31;;;15.16;61.13
45888;BME280;31595;51.418;7.572;2022-09-01T06:15:50;100779.34;;;15.16;61.01
45888;BME280;31595;51.418;7.572;2022-09-01T06:18:19;100772.72;;;15.21;61.31
45888;BME280;31595;51.418;7.572;2022-09-01T06:20:49;100779.97;;;15.22;61.18
45888;BME280;31595;51.418;7.572;2022-09-01T06:23:17;100778.75;;;15.32;61.01
45888;BME280;31595;51.418;7.572;2022-09-01T06:25:45;100777.72;;;15.36;61.14
45888;BME280;31595;51.418;7.572;2022-09-01T06:28:13;100777.56;;;15.41;61.26
45888;BME280;31595;51.418;7.572;2022-09-01T06:30:41;100782.78;;;15.52;61.29
45888;BME280;31595;51.418;7.572;2022-09-01T06:33:09;100786.47;;;15.65;60.86
45888;BME280;31595;51.418;7.572;2022-09-01T06:35:38;100786.78;;;15.72;60.53
45888;BME280;31595;51.418;7.572;2022-09-01T06:38:08;100786.03;;;15.83;60.39
45888;BME280;31595;51.418;7.572;2022-09-01T06:40:37;100787.47;;;15.90;60.30
45888;BME280;31595;51.418;7.572;2022-09-01T06:43:06;100791.38;;;15.97;60.24
45888;BME280;31595;51.418;7.572;2022-09-01T06:45:38;100790.63;;;16.09;60.09
45888;BME280;31595;51.418;7.572;2022-09-01T06:48:10;100778.25;;;16.22;59.84
45888;BME280;31595;51.418;7.572;2022-09-01T06:50:42;100791.06;;;16.32;59.85
45888;BME280;31595;51.418;7.572;2022-09-01T06:53:12;100787.25;;;16.49;59.12
45888;BME280;31595;51.418;7.572;2022-09-01T06:55:41;100796.53;;;16.62;59.13
45888;BME280;31595;51.418;7.572;2022-09-01T06:58:09;100781.81;;;16.77;58.33
45888;BME280;31595;51.418;7.572;2022-09-01T07:00:41;100792.63;;;16.88;57.70
45888;BME280;31595;51.418;7.572;2022-09-01T07:03:09;100785.75;;;16.97;57.63
45888;BME280;31595;51.418;7.572;2022-09-01T07:05:39;100788.56;;;17.10;57.44
45888;BME280;31595;51.418;7.572;2022-09-01T07:08:09;100786.69;;;17.26;57.17
45888;BME280;31595;51.418;7.572;2022-09-01T07:10:43;100792.31;;;17.38;56.61
45888;BME280;31595;51.418;7.572;2022-09-01T07:13:12;100785.50;;;17.52;56.47
45888;BME280;31595;51.418;7.572;2022-09-01T07:15:43;100782.28;;;17.65;55.86
45888;BME280;31595;51.418;7.572;2022-09-01T07:18:12;100790.84;;;17.81;55.47
45888;BME280;31595;51.418;7.572;2022-09-01T07:20:40;100779.41;;;18.02;54.80
45888;BME280;31595;51.418;7.572;2022-09-01T07:23:08;100788.38;;;18.49;53.50
45888;BME280;31595;51.418;7.572;2022-09-01T07:25:38;100779.88;;;19.40;51.36
45888;BME280;31595;51.418;7.572;2022-09-01T07:28:08;100775.41;;;20.72;47.73
45888;BME280;31595;51.418;7.572;2022-09-01T07:30:40;100766.63;;;22.10;45.73
45888;BME280;31595;51.418;7.572;2022-09-01T07:33:08;100772.03;;;23.42;42.96
45888;BME280;31595;51.418;7.572;2022-09-01T07:35:39;100767.38;;;24.84;39.61
45888;BME280;31595;51.418;7.572;2022-09-01T07:38:07;100769.72;;;26.04;36.79
45888;BME280;31595;51.418;7.572;2022-09-01T07:40:36;100764.31;;;27.47;33.96
45888;BME280;31595;51.418;7.572;2022-09-01T07:43:07;100764.94;;;28.65;31.56
45888;BME280;31595;51.418;7.572;2022-09-01T07:45:36;100762.28;;;30.15;29.47
45888;BME280;31595;51.418;7.572;2022-09-01T07:48:05;100759.19;;;30.63;28.51
45888;BME280;31595;51.418;7.572;2022-09-01T07:50:35;100757.59;;;31.89;26.07
45888;BME280;31595;51.418;7.572;2022-09-01T07:53:03;100745.44;;;32.79;24.09
45888;BME280;31595;51.418;7.572;2022-09-01T07:55:30;100756.13;;;33.29;23.95
45888;BME280;31595;51.418;7.572;2022-09-01T07:57:59;100750.53;;;33.61;22.74
45888;BME280;31595;51.418;7.572;2022-09-01T08:00:28;100752.16;;;34.90;21.80
45888;BME280;31595;51.418;7.572;2022-09-01T08:02:56;100749.88;;;35.53;21.05
45888;BME280;31595;51.418;7.572;2022-09-01T08:05:23;100753.53;;;34.67;20.46
45888;BME280;31595;51.418;7.572;2022-09-01T08:07:52;100748.88;;;35.20;20.79
45888;BME280;31595;51.418;7.572;2022-09-01T08:10:20;100741.19;;;36.00;20.00
45888;BME280;31595;51.418;7.572;2022-09-01T08:12:47;100738.91;;;36.74;18.84
45888;BME280;31595;51.418;7.572;2022-09-01T08:15:15;100746.38;;;37.71;18.78
45888;BME280;31595;51.418;7.572;2022-09-01T08:17:44;100746.13;;;38.73;18.04
45888;BME280;31595;51.418;7.572;2022-09-01T08:20:11;100749.38;;;39.31;16.78
45888;BME280;31595;51.418;7.572;2022-09-01T08:22:39;100750.88;;;40.14;16.13
45888;BME280;31595;51.418;7.572;2022-09-01T08:25:08;100727.41;;;40.55;15.34
45888;BME280;31595;51.418;7.572;2022-09-01T08:27:36;100737.22;;;41.33;14.93
45888;BME280;31595;51.418;7.572;2022-09-01T08:30:06;100740.69;;;42.31;14.35
45888;BME280;31595;51.418;7.572;2022-09-01T08:32:34;100731.00;;;43.21;13.75
45888;BME280;31595;51.418;7.572;2022-09-01T08:35:05;100740.50;;;43.49;13.76
45888;BME280;31595;51.418;7.572;2022-09-01T08:37:33;100751.66;;;44.04;12.96
45888;BME280;31595;51.418;7.572;2022-09-01T08:40:00;100738.25;;;44.20;12.71
45888;BME280;31595;51.418;7.572;2022-09-01T08:42:39;100744.47;;;45.01;11.99
45888;BME280;31595;51.418;7.572;2022-09-01T08:45:12;100746.78;;;45.08;11.95
45888;BME280;31595;51.418;7.572;2022-09-01T08:47:44;100740.53;;;45.61;11.96
45888;BME280;31595;51.418;7.572;2022-09-01T08:50:15;100732.75;;;46.66;11.10
45888;BME280;31595;51.418;7.572;2022-09-01T08:52:48;100730.47;;;46.46;11.19
45888;BME280;31595;51.418;7.572;2022-09-01T08:55:24;100721.69;;;47.12;11.04
45888;BME280;31595;51.418;7.572;2022-09-01T08:57:54;100721.47;;;46.97;11.02
45888;BME280;31595;51.418;7.572;2022-09-01T09:00:24;100727.03;;;47.54;10.66
45888;BME280;31595;51.418;7.572;2022-09-01T09:03:04;100719.38;;;47.72;10.37
45888;BME280;31595;51.418;7.572;2022-09-01T09:05:48;100720.78;;;48.26;10.20
45888;BME280;31595;51.418;7.572;2022-09-01T09:08:43;100718.13;;;48.86;9.98
45888;BME280;31595;51.418;7.572;2022-09-01T09:11:33;100718.97;;;48.94;9.57
45888;BME280;31595;51.418;7.572;2022-09-01T09:14:10;100716.00;;;48.44;10.03
45888;BME280;31595;51.418;7.572;2022-09-01T09:16:42;100718.41;;;47.03;10.51
45888;BME280;31595;51.418;7.572;2022-09-01T09:19:16;100720.19;;;46.33;11.03
45888;BME280;31595;51.418;7.572;2022-09-01T09:21:50;100715.94;;;47.20;10.70
45888;BME280;31595;51.418;7.572;2022-09-01T09:24:25;100709.06;;;48.00;9.95
45888;BME280;31595;51.418;7.572;2022-09-01T09:26:54;100709.63;;;48.32;10.24
45888;BME280;31595;51.418;7.572;2022-09-01T09:29:22;100713.19;;;47.83;10.17
45888;BME280;31595;51.418;7.572;2022-09-01T09:31:50;100707.41;;;47.03;10.81
45888;BME280;31595;51.418;7.572;2022-09-01T09:34:33;100698.56;;;47.30;10.57
45888;BME280;31595;51.418;7.572;2022-09-01T09:37:20;100705.47;;;47.32;10.37
45888;BME280;31595;51.418;7.572;2022-09-01T09:40:07;100701.78;;;48.01;10.45
45888;BME280;31595;51.418;7.572;2022-09-01T09:42:35;100696.50;;;46.85;10.48
45888;BME280;31595;51.418;7.572;2022-09-01T09:45:13;100689.75;;;47.64;10.38
45888;BME280;31595;51.418;7.572;2022-09-01T09:47:44;100694.91;;;47.37;10.32
45888;BME280;31595;51.418;7.572;2022-09-01T09:50:19;100689.91;;;47.80;10.23
45888;BME280;31595;51.418;7.572;2022-09-01T09:52:50;100680.75;;;48.46;10.16
45888;BME280;31595;51.418;7.572;2022-09-01T09:55:24;100682.56;;;49.43;9.62
45888;BME280;31595;51.418;7.572;2022-09-01T09:57:55;100683.13;;;48.06;10.00
45888;BME280;31595;51.418;7.572;2022-09-01T10:00:25;100681.97;;;47.40;10.23
45888;BME280;31595;51.418;7.572;2022-09-01T10:02:56;100674.13;;;47.90;10.28
45888;BME280;31595;51.418;7.572;2022-09-01T10:05:38;100677.56;;;48.23;10.02
45888;BME280;31595;51.418;7.572;2022-09-01T10:08:09;100669.13;;;47.85;10.06
45888;BME280;31595;51.418;7.572;2022-09-01T10:10:39;100669.50;;;48.45;9.56
45888;BME280;31595;51.418;7.572;2022-09-01T10:13:10;100667.72;;;48.42;9.98
45888;BME280;31595;51.418;7.572;2022-09-01T10:15:40;100668.25;;;48.32;9.67
45888;BME280;31595;51.418;7.572;2022-09-01T10:18:13;100657.06;;;47.62;10.26
45888;BME280;31595;51.418;7.572;2022-09-01T10:20:45;100667.69;;;47.31;10.48
45888;BME280;31595;51.418;7.572;2022-09-01T10:23:16;100648.03;;;47.33;10.17
45888;BME280;31595;51.418;7.572;2022-09-01T10:25:43;100648.38;;;48.41;9.34
45888;BME280;31595;51.418;7.572;2022-09-01T10:28:15;100648.72;;;48.87;8.97
45888;BME280;31595;51.418;7.572;2022-09-01T10:30:46;100647.81;;;49.36;8.98
45888;BME280;31595;51.418;7.572;2022-09-01T10:33:15;100645.38;;;49.27;9.27
45888;BME280;31595;51.418;7.572;2022-09-01T10:35:45;100643.66;;;46.73;10.58
45888;BME280;31595;51.418;7.572;2022-09-01T10:38:17;100634.88;;;47.69;9.73
45888;BME280;31595;51.418;7.572;2022-09-01T10:40:47;100639.34;;;47.62;9.10
45888;BME280;31595;51.418;7.572;2022-09-01T10:43:34;100636.50;;;47.22;9.71
45888;BME280;31595;51.418;7.572;2022-09-01T10:48:59;100650.69;;;42.65;12.18
45888;BME280;31595;51.418;7.572;2022-09-01T10:51:43;100645.16;;;43.31;11.63
45888;BME280;31595;51.418;7.572;2022-09-01T10:54:50;100627.97;;;44.98;11.19
45888;BME280;31595;51.418;7.572;2022-09-01T10:57:34;100630.88;;;46.12;10.69
45888;BME280;31595;51.418;7.572;2022-09-01T11:04:00;100622.66;;;44.72;10.85
45888;BME280;31595;51.418;7.572;2022-09-01T11:09:35;100633.38;;;42.62;12.75
45888;BME280;31595;51.418;7.572;2022-09-01T11:15:35;100633.94;;;43.30;11.88
45888;BME280;31595;51.418;7.572;2022-09-01T11:18:08;100639.69;;;44.24;11.53
45888;BME280;31595;51.418;7.572;2022-09-01T11:20:38;100625.63;;;45.34;11.18
45888;BME280;31595;51.418;7.572;2022-09-01T11:23:10;100633.31;;;45.75;10.93
45888;BME280;31595;51.418;7.572;2022-09-01T11:25:41;100624.41;;;44.81;11.36
45888;BME280;31595;51.418;7.572;2022-09-01T11:28:39;100629.25;;;43.57;11.83
45888;BME280;31595;51.418;7.572;2022-09-01T11:31:20;100621.06;;;44.95;11.07
45888;BME280;31595;51.418;7.572;2022-09-01T11:33:58;100617.44;;;45.65;10.50
45888;BME280;31595;51.418;7.572;2022-09-01T11:36:30;100624.28;;;42.71;12.00
45888;BME280;31595;51.418;7.572;2022-09-01T11:39:08;100629.59;;;41.48;12.65
45888;BME280;31595;51.418;7.572;2022-09-01T11:41:52;100629.41;;;41.91;13.19
45888;BME280;31595;51.418;7.572;2022-09-01T11:44:24;100620.91;;;42.10;12.48
45888;BME280;31595;51.418;7.572;2022-09-01T11:46:57;100628.50;;;42.92;12.44
45888;BME280;31595;51.418;7.572;2022-09-01T11:49:28;100629.53;;;43.53;11.64
45888;BME280;31595;51.418;7.572;2022-09-01T11:51:57;100618.50;;;44.07;11.33
45888;BME280;31595;51.418;7.572;2022-09-01T11:54:28;100616.09;;;44.35;11.34
45888;BME280;31595;51.418;7.572;2022-09-01T11:56:56;100610.59;;;44.75;10.84
45888;BME280;31595;51.418;7.572;2022-09-01T11:59:31;100597.88;;;45.49;10.78
45888;BME280;31595;51.418;7.572;2022-09-01T12:02:00;100603.91;;;45.18;10.91
45888;BME280;31595;51.418;7.572;2022-09-01T12:04:31;100609.00;;;44.25;11.01
45888;BME280;31595;51.418;7.572;2022-09-01T12:07:03;100613.81;;;43.51;11.48
45888;BME280;31595;51.418;7.572;2022-09-01T12:09:34;100599.78;;;44.10;11.56
45888;BME280;31595;51.418;7.572;2022-09-01T12:12:03;100590.78;;;44.57;10.50
45888;BME280;31595;51.418;7.572;2022-09-01T12:14:31;100592.59;;;45.61;10.60
45888;BME280;31595;51.418;7.572;2022-09-01T12:17:03;100590.19;;;45.78;9.85
45888;BME280;31595;51.418;7.572;2022-09-01T12:19:33;100582.25;;;45.73;10.06
45888;BME280;31595;51.418;7.572;2022-09-01T12:22:06;100583.84;;;43.99;11.16
45888;BME280;31595;51.418;7.572;2022-09-01T12:24:44;100588.78;;;43.50;11.09
45888;BME280;31595;51.418;7.572;2022-09-01T12:27:12;100592.19;;;41.86;12.05
45888;BME280;31595;51.418;7.572;2022-09-01T12:29:40;100586.84;;;42.47;11.96
45888;BME280;31595;51.418;7.572;2022-09-01T12:32:09;100584.34;;;43.32;11.39
45888;BME280;31595;51.418;7.572;2022-09-01T12:34:40;100581.41;;;42.85;11.35
45888;BME280;31595;51.418;7.572;2022-09-01T12:37:10;100572.47;;;41.81;12.31
45888;BME280;31595;51.418;7.572;2022-09-01T12:39:39;100575.09;;;40.68;12.58
45888;BME280;31595;51.418;7.572;2022-09-01T12:42:11;100572.38;;;39.84;13.27
45888;BME280;31595;51.418;7.572;2022-09-01T12:44:50;100570.34;;;39.96;13.62
45888;BME280;31595;51.418;7.572;2022-09-01T12:47:50;100566.97;;;40.03;13.08
45888;BME280;31595;51.418;7.572;2022-09-01T12:50:41;100562.50;;;39.76;13.43
45888;BME280;31595;51.418;7.572;2022-09-01T12:53:21;100563.13;;;39.86;13.44
45888;BME280;31595;51.418;7.572;2022-09-01T12:56:17;100566.84;;;39.34;14.34
45888;BME280;31595;51.418;7.572;2022-09-01T12:58:48;100557.16;;;39.43;13.94
45888;BME280;31595;51.418;7.572;2022-09-01T13:01:25;100556.09;;;37.87;15.06
45888;BME280;31595;51.418;7.572;2022-09-01T13:04:10;100565.97;;;35.91;16.37
45888;BME280;31595;51.418;7.572;2022-09-01T13:06:38;100557.25;;;35.30;17.18
45888;BME280;31595;51.418;7.572;2022-09-01T13:09:05;100552.59;;;35.05;17.24
45888;BME280;31595;51.418;7.572;2022-09-01T13:11:33;100553.97;;;35.74;17.04
45888;BME280;31595;51.418;7.572;2022-09-01T13:14:00;100547.91;;;36.63;16.40
45888;BME280;31595;51.418;7.572;2022-09-01T13:16:27;100542.53;;;37.40;15.82
45888;BME280;31595;51.418;7.572;2022-09-01T13:18:55;100535.84;;;37.78;15.33
45888;BME280;31595;51.418;7.572;2022-09-01T13:21:23;100542.25;;;37.52;15.53
45888;BME280;31595;51.418;7.572;2022-09-01T13:23:52;100540.78;;;37.72;15.64